sensor_id;sensor_type;location;lat;lon;timestamp;P1;durP1;ratioP1;P2;durP2;ratioP2
52816;SDS011;38687;43.330;21.924;2023-04-08T00:01:03;25.92;;;15.20;;
52816;SDS011;38687;43.330;21.924;2023-04-08T00:03:31;22.42;;;13.52;;
52816;SDS011;38687;43.330;21.924;2023-04-08T00:05:57;43.20;;;20.17;;
52816;SDS011;38687;43.330;21.924;2023-04-08T00:08:22;26.83;;;14.50;;
52816;SDS011;38687;43.330;21.924;2023-04-08T00:10:47;22.15;;;14.13;;
52816;SDS011;38687;43.330;21.924;2023-04-08T00:13:13;20.10;;;12.25;;
52816;SDS011;38687;43.330;21.924;2023-04-08T00:15:39;21.92;;;12.38;;
52816;SDS011;38687;43.330;21.924;2023-04-08T00:18:05;21.85;;;13.05;;
52816;SDS011;38687;43.330;21.924;2023-04-08T00:20:31;24.73;;;12.55;;
52816;SDS011;38687;43.330;21.924;2023-04-08T00:22:56;23.85;;;13.60;;
52816;SDS011;38687;43.330;21.924;2023-04-08T00:25:22;24.42;;;12.93;;
52816;SDS011;38687;43.330;21.924;2023-04-08T00:27:47;21.17;;;12.77;;
52816;SDS011;38687;43.330;21.924;2023-04-08T00:30:12;22.95;;;14.20;;
52816;SDS011;38687;43.330;21.924;2023-04-08T00:32:39;21.73;;;13.38;;
52816;SDS011;38687;43.330;21.924;2023-04-08T00:35:05;19.98;;;13.18;;
52816;SDS011;38687;43.330;21.924;2023-04-08T00:37:30;26.63;;;15.18;;
52816;SDS011;38687;43.330;21.924;2023-04-08T00:39:56;23.63;;;14.65;;
52816;SDS011;38687;43.330;21.924;2023-04-08T00:42:21;28.00;;;15.82;;
52816;SDS011;38687;43.330;21.924;2023-04-08T00:44:47;35.95;;;19.67;;
52816;SDS011;38687;43.330;21.924;2023-04-08T00:47:15;36.42;;;20.10;;
52816;SDS011;38687;43.330;21.924;2023-04-08T00:49:44;36.13;;;20.50;;
52816;SDS011;38687;43.330;21.924;2023-04-08T00:52:09;30.75;;;18.33;;
52816;SDS011;38687;43.330;21.924;2023-04-08T00:54:36;37.88;;;19.23;;
52816;SDS011;38687;43.330;21.924;2023-04-08T00:57:02;44.55;;;20.80;;
52816;SDS011;38687;43.330;21.924;2023-04-08T00:59:29;41.58;;;21.38;;
52816;SDS011;38687;43.330;21.924;2023-04-08T01:02:16;27.60;;;16.30;;
52816;SDS011;38687;43.330;21.924;2023-04-08T01:07:31;19.35;;;11.70;;
52816;SDS011;38687;43.330;21.924;2023-04-08T01:10:04;16.38;;;11.15;;
52816;SDS011;38687;43.330;21.924;2023-04-08T01:12:32;25.73;;;12.20;;
52816;SDS011;38687;43.330;21.924;2023-04-08T01:15:05;15.18;;;9.70;;
52816;SDS011;38687;43.330;21.924;2023-04-08T01:17:32;19.52;;;13.27;;
52816;SDS011;38687;43.330;21.924;2023-04-08T01:19:59;24.70;;;15.25;;
52816;SDS011;38687;43.330;21.924;2023-04-08T01:25:37;28.30;;;15.73;;
52816;SDS011;38687;43.330;21.924;2023-04-08T01:28:04;20.65;;;13.98;;
52816;SDS011;38687;43.330;21.924;2023-04-08T01:30:31;25.70;;;15.88;;
52816;SDS011;38687;43.330;21.924;2023-04-08T01:32:58;27.90;;;16.13;;
52816;SDS011;38687;43.330;21.924;2023-04-08T01:35:24;23.75;;;16.10;;
52816;SDS011;38687;43.330;21.924;2023-04-08T01:37:50;29.55;;;18.75;;
52816;SDS011;38687;43.330;21.924;2023-04-08T01:40:19;32.08;;;18.70;;
52816;SDS011;38687;43.330;21.924;2023-04-08T01:42:46;32.08;;;17.85;;
52816;SDS011;38687;43.330;21.924;2023-04-08T01:45:12;28.25;;;17.73;;
52816;SDS011;38687;43.330;21.924;2023-04-08T01:47:38;32.45;;;17.50;;
52816;SDS011;38687;43.330;21.924;2023-04-08T01:50:05;31.45;;;19.83;;
52816;SDS011;38687;43.330;21.924;2023-04-08T01:52:31;34.25;;;18.83;;
52816;SDS011;38687;43.330;21.924;2023-04-08T01:54:59;36.70;;;22.70;;
52816;SDS011;38687;43.330;21.924;2023-04-08T01:57:26;38.55;;;20.92;;
52816;SDS011;38687;43.330;21.924;2023-04-08T01:59:52;30.58;;;17.42;;
52816;SDS011;38687;43.330;21.924;2023-04-08T02:02:22;26.92;;;17.13;;
52816;SDS011;38687;43.330;21.924;2023-04-08T02:04:49;33.22;;;18.65;;
52816;SDS011;38687;43.330;21.924;2023-04-08T02:07:15;33.40;;;17.77;;
52816;SDS011;38687;43.330;21.924;2023-04-08T02:09:41;26.92;;;16.58;;
52816;SDS011;38687;43.330;21.924;2023-04-08T02:12:06;23.52;;;14.10;;
52816;SDS011;38687;43.330;21.924;2023-04-08T02:14:31;27.27;;;14.63;;
52816;SDS011;38687;43.330;21.924;2023-04-08T02:17:01;27.98;;;15.95;;
52816;SDS011;38687;43.330;21.924;2023-04-08T02:19:35;24.20;;;13.95;;
52816;SDS011;38687;43.330;21.924;2023-04-08T02:22:11;27.05;;;15.00;;
52816;SDS011;38687;43.330;21.924;2023-04-08T02:25:13;24.42;;;13.15;;
52816;SDS011;38687;43.330;21.924;2023-04-08T02:27:40;24.20;;;13.50;;
52816;SDS011;38687;43.330;21.924;2023-04-08T02:30:09;25.13;;;15.43;;
52816;SDS011;38687;43.330;21.924;2023-04-08T02:32:39;29.77;;;14.93;;
52816;SDS011;38687;43.330;21.924;2023-04-08T02:35:05;22.75;;;14.88;;
52816;SDS011;38687;43.330;21.924;2023-04-08T02:37:32;24.92;;;14.55;;
52816;SDS011;38687;43.330;21.924;2023-04-08T02:39:57;25.02;;;13.52;;
52816;SDS011;38687;43.330;21.924;2023-04-08T02:42:23;29.33;;;14.50;;
52816;SDS011;38687;43.330;21.924;2023-04-08T02:44:48;25.20;;;13.88;;
52816;SDS011;38687;43.330;21.924;2023-04-08T02:47:15;20.20;;;12.65;;
52816;SDS011;38687;43.330;21.924;2023-04-08T02:49:40;24.48;;;13.85;;
52816;SDS011;38687;43.330;21.924;2023-04-08T02:52:06;24.15;;;13.77;;
52816;SDS011;38687;43.330;21.924;2023-04-08T02:54:31;21.15;;;13.77;;
52816;SDS011;38687;43.330;21.924;2023-04-08T02:56:56;25.02;;;14.80;;
52816;SDS011;38687;43.330;21.924;2023-04-08T02:59:22;21.38;;;14.65;;
52816;SDS011;38687;43.330;21.924;2023-04-08T03:01:50;22.95;;;14.77;;
52816;SDS011;38687;43.330;21.924;2023-04-08T03:04:15;23.05;;;14.38;;
52816;SDS011;38687;43.330;21.924;2023-04-08T03:06:41;25.33;;;15.27;;
52816;SDS011;38687;43.330;21.924;2023-04-08T03:09:06;20.80;;;13.55;;
52816;SDS011;38687;43.330;21.924;2023-04-08T03:11:32;19.92;;;13.13;;
52816;SDS011;38687;43.330;21.924;2023-04-08T03:13:57;21.77;;;13.05;;
52816;SDS011;38687;43.330;21.924;2023-04-08T03:16:22;21.70;;;13.32;;
52816;SDS011;38687;43.330;21.924;2023-04-08T03:18:48;25.85;;;13.57;;
52816;SDS011;38687;43.330;21.924;2023-04-08T03:21:15;31.95;;;18.75;;
52816;SDS011;38687;43.330;21.924;2023-04-08T03:23:40;34.92;;;20.15;;
52816;SDS011;38687;43.330;21.924;2023-04-08T03:26:06;31.90;;;17.70;;
52816;SDS011;38687;43.330;21.924;2023-04-08T03:28:31;28.27;;;15.88;;
52816;SDS011;38687;43.330;21.924;2023-04-08T03:30:56;21.80;;;14.27;;
52816;SDS011;38687;43.330;21.924;2023-04-08T03:33:25;25.40;;;14.85;;
52816;SDS011;38687;43.330;21.924;2023-04-08T03:35:50;23.92;;;13.55;;
52816;SDS011;38687;43.330;21.924;2023-04-08T03:38:17;26.80;;;14.68;;
52816;SDS011;38687;43.330;21.924;2023-04-08T03:40:42;24.45;;;15.60;;
52816;SDS011;38687;43.330;21.924;2023-04-08T03:43:11;25.00;;;13.70;;
52816;SDS011;38687;43.330;21.924;2023-04-08T03:45:40;24.40;;;15.82;;
52816;SDS011;38687;43.330;21.924;2023-04-08T03:48:06;21.48;;;15.13;;
52816;SDS011;38687;43.330;21.924;2023-04-08T03:50:32;24.00;;;15.07;;
52816;SDS011;38687;43.330;21.924;2023-04-08T03:52:57;26.35;;;15.95;;
52816;SDS011;38687;43.330;21.924;2023-04-08T03:55:22;24.77;;;15.98;;
52816;SDS011;38687;43.330;21.924;2023-04-08T03:57:48;29.05;;;17.20;;
52816;SDS011;38687;43.330;21.924;2023-04-08T04:00:13;29.10;;;17.48;;
52816;SDS011;38687;43.330;21.924;2023-04-08T04:02:39;28.23;;;16.73;;
52816;SDS011;38687;43.330;21.924;2023-04-08T04:05:04;33.50;;;17.58;;
52816;SDS011;38687;43.330;21.924;2023-04-08T04:07:30;29.73;;;17.27;;
52816;SDS011;38687;43.330;21.924;2023-04-08T04:09:55;33.97;;;18.88;;
52816;SDS011;38687;43.330;21.924;2023-04-08T04:12:21;32.88;;;20.13;;
52816;SDS011;38687;43.330;21.924;2023-04-08T04:14:47;47.42;;;24.70;;
52816;SDS011;38687;43.330;21.924;2023-04-08T04:17:12;45.70;;;24.73;;
52816;SDS011;38687;43.330;21.924;2023-04-08T04:19:38;51.08;;;30.95;;
52816;SDS011;38687;43.330;21.924;2023-04-08T04:22:03;69.85;;;38.22;;
52816;SDS011;38687;43.330;21.924;2023-04-08T04:24:28;52.80;;;27.70;;
52816;SDS011;38687;43.330;21.924;2023-04-08T04:26:54;51.80;;;28.45;;
52816;SDS011;38687;43.330;21.924;2023-04-08T04:29:19;57.47;;;31.38;;
52816;SDS011;38687;43.330;21.924;2023-04-08T04:31:45;45.17;;;26.30;;
52816;SDS011;38687;43.330;21.924;2023-04-08T04:34:10;41.08;;;23.13;;
52816;SDS011;38687;43.330;21.924;2023-04-08T04:36:36;39.92;;;23.77;;
52816;SDS011;38687;43.330;21.924;2023-04-08T04:39:01;44.45;;;25.60;;
52816;SDS011;38687;43.330;21.924;2023-04-08T04:41:26;42.45;;;25.88;;
52816;SDS011;38687;43.330;21.924;2023-04-08T04:43:53;42.50;;;25.13;;
52816;SDS011;38687;43.330;21.924;2023-04-08T04:46:18;40.65;;;26.42;;
52816;SDS011;38687;43.330;21.924;2023-04-08T04:48:44;41.10;;;24.20;;
52816;SDS011;38687;43.330;21.924;2023-04-08T04:51:09;39.55;;;24.67;;
52816;SDS011;38687;43.330;21.924;2023-04-08T04:53:35;38.50;;;24.40;;
52816;SDS011;38687;43.330;21.924;2023-04-08T04:56:00;64.05;;;39.83;;
52816;SDS011;38687;43.330;21.924;2023-04-08T04:58:26;86.85;;;47.15;;
52816;SDS011;38687;43.330;21.924;2023-04-08T05:00:51;60.30;;;37.13;;
52816;SDS011;38687;43.330;21.924;2023-04-08T05:03:17;57.42;;;34.17;;
52816;SDS011;38687;43.330;21.924;2023-04-08T05:05:42;56.35;;;32.90;;
52816;SDS011;38687;43.330;21.924;2023-04-08T05:08:08;56.47;;;34.30;;
52816;SDS011;38687;43.330;21.924;2023-04-08T05:10:33;56.85;;;31.15;;
52816;SDS011;38687;43.330;21.924;2023-04-08T05:12:58;59.17;;;34.20;;
52816;SDS011;38687;43.330;21.924;2023-04-08T05:15:24;59.10;;;34.95;;
52816;SDS011;38687;43.330;21.924;2023-04-08T05:17:50;62.15;;;38.17;;
52816;SDS011;38687;43.330;21.924;2023-04-08T05:20:15;61.58;;;36.25;;
52816;SDS011;38687;43.330;21.924;2023-04-08T05:22:40;62.83;;;37.45;;
52816;SDS011;38687;43.330;21.924;2023-04-08T05:25:08;57.35;;;34.38;;
52816;SDS011;38687;43.330;21.924;2023-04-08T05:27:34;54.35;;;33.75;;
52816;SDS011;38687;43.330;21.924;2023-04-08T05:30:00;56.08;;;33.60;;
52816;SDS011;38687;43.330;21.924;2023-04-08T05:32:25;73.90;;;48.08;;
52816;SDS011;38687;43.330;21.924;2023-04-08T05:34:52;50.03;;;34.53;;
52816;SDS011;38687;43.330;21.924;2023-04-08T05:37:17;47.15;;;29.65;;
52816;SDS011;38687;43.330;21.924;2023-04-08T05:39:42;50.25;;;27.75;;
52816;SDS011;38687;43.330;21.924;2023-04-08T05:42:08;47.00;;;27.65;;
52816;SDS011;38687;43.330;21.924;2023-04-08T05:44:33;32.55;;;20.48;;
52816;SDS011;38687;43.330;21.924;2023-04-08T05:46:59;31.95;;;21.95;;
52816;SDS011;38687;43.330;21.924;2023-04-08T05:49:24;35.60;;;22.45;;
52816;SDS011;38687;43.330;21.924;2023-04-08T05:51:50;29.85;;;20.58;;
52816;SDS011;38687;43.330;21.924;2023-04-08T05:54:15;36.05;;;22.60;;
52816;SDS011;38687;43.330;21.924;2023-04-08T05:56:41;35.03;;;21.83;;
52816;SDS011;38687;43.330;21.924;2023-04-08T05:59:06;35.53;;;21.33;;
52816;SDS011;38687;43.330;21.924;2023-04-08T06:01:31;29.20;;;19.52;;
52816;SDS011;38687;43.330;21.924;2023-04-08T06:03:57;30.65;;;20.17;;
52816;SDS011;38687;43.330;21.924;2023-04-08T06:06:22;38.38;;;25.05;;
52816;SDS011;38687;43.330;21.924;2023-04-08T06:08:49;41.58;;;24.48;;
52816;SDS011;38687;43.330;21.924;2023-04-08T06:11:14;36.60;;;23.52;;
52816;SDS011;38687;43.330;21.924;2023-04-08T06:13:40;36.63;;;22.90;;
52816;SDS011;38687;43.330;21.924;2023-04-08T06:16:10;36.35;;;24.15;;
52816;SDS011;38687;43.330;21.924;2023-04-08T06:18:36;42.85;;;24.10;;
52816;SDS011;38687;43.330;21.924;2023-04-08T06:21:02;49.95;;;27.30;;
52816;SDS011;38687;43.330;21.924;2023-04-08T06:23:27;42.60;;;24.80;;
52816;SDS011;38687;43.330;21.924;2023-04-08T06:25:52;46.63;;;27.80;;
52816;SDS011;38687;43.330;21.924;2023-04-08T06:28:18;44.80;;;28.30;;
52816;SDS011;38687;43.330;21.924;2023-04-08T06:30:43;45.78;;;29.38;;
52816;SDS011;38687;43.330;21.924;2023-04-08T06:33:09;43.90;;;28.98;;
52816;SDS011;38687;43.330;21.924;2023-04-08T06:35:34;38.45;;;24.00;;
52816;SDS011;38687;43.330;21.924;2023-04-08T06:38:02;34.58;;;23.77;;
52816;SDS011;38687;43.330;21.924;2023-04-08T06:40:31;31.92;;;19.92;;
52816;SDS011;38687;43.330;21.924;2023-04-08T06:42:56;31.65;;;19.92;;
52816;SDS011;38687;43.330;21.924;2023-04-08T06:45:21;43.75;;;25.73;;
52816;SDS011;38687;43.330;21.924;2023-04-08T06:47:47;40.85;;;24.17;;
52816;SDS011;38687;43.330;21.924;2023-04-08T06:50:12;54.97;;;31.40;;
52816;SDS011;38687;43.330;21.924;2023-04-08T06:52:37;54.58;;;35.25;;
52816;SDS011;38687;43.330;21.924;2023-04-08T06:55:03;78.28;;;42.15;;
52816;SDS011;38687;43.330;21.924;2023-04-08T06:57:29;75.82;;;45.83;;
52816;SDS011;38687;43.330;21.924;2023-04-08T06:59:54;61.65;;;37.55;;
52816;SDS011;38687;43.330;21.924;2023-04-08T07:02:20;61.35;;;36.60;;
52816;SDS011;38687;43.330;21.924;2023-04-08T07:04:46;65.20;;;39.65;;
52816;SDS011;38687;43.330;21.924;2023-04-08T07:07:12;61.08;;;37.17;;
52816;SDS011;38687;43.330;21.924;2023-04-08T07:09:37;55.42;;;33.95;;
52816;SDS011;38687;43.330;21.924;2023-04-08T07:12:04;67.68;;;40.55;;
52816;SDS011;38687;43.330;21.924;2023-04-08T07:14:29;44.92;;;29.13;;
52816;SDS011;38687;43.330;21.924;2023-04-08T07:16:54;61.80;;;38.00;;
52816;SDS011;38687;43.330;21.924;2023-04-08T07:19:20;51.45;;;32.10;;
52816;SDS011;38687;43.330;21.924;2023-04-08T07:21:48;50.13;;;30.85;;
52816;SDS011;38687;43.330;21.924;2023-04-08T07:24:13;53.60;;;33.63;;
52816;SDS011;38687;43.330;21.924;2023-04-08T07:26:38;65.63;;;38.53;;
52816;SDS011;38687;43.330;21.924;2023-04-08T07:29:04;58.17;;;36.65;;
52816;SDS011;38687;43.330;21.924;2023-04-08T07:31:29;52.42;;;33.65;;
52816;SDS011;38687;43.330;21.924;2023-04-08T07:33:55;64.55;;;39.47;;
52816;SDS011;38687;43.330;21.924;2023-04-08T07:36:20;53.53;;;32.58;;
52816;SDS011;38687;43.330;21.924;2023-04-08T07:38:46;75.07;;;44.70;;
52816;SDS011;38687;43.330;21.924;2023-04-08T07:41:11;74.70;;;43.95;;
52816;SDS011;38687;43.330;21.924;2023-04-08T07:43:36;49.95;;;32.78;;
52816;SDS011;38687;43.330;21.924;2023-04-08T07:46:04;54.60;;;31.83;;
52816;SDS011;38687;43.330;21.924;2023-04-08T07:48:30;71.88;;;40.85;;
52816;SDS011;38687;43.330;21.924;2023-04-08T07:50:56;70.25;;;40.28;;
52816;SDS011;38687;43.330;21.924;2023-04-08T07:53:21;66.40;;;40.20;;
52816;SDS011;38687;43.330;21.924;2023-04-08T07:55:49;54.35;;;35.05;;
52816;SDS011;38687;43.330;21.924;2023-04-08T07:58:14;59.40;;;37.53;;
52816;SDS011;38687;43.330;21.924;2023-04-08T08:00:39;59.85;;;39.83;;
52816;SDS011;38687;43.330;21.924;2023-04-08T08:03:05;65.95;;;38.42;;
52816;SDS011;38687;43.330;21.924;2023-04-08T08:05:30;60.88;;;37.65;;
52816;SDS011;38687;43.330;21.924;2023-04-08T08:07:56;63.33;;;36.20;;
52816;SDS011;38687;43.330;21.924;2023-04-08T08:10:21;62.50;;;37.60;;
52816;SDS011;38687;43.330;21.924;2023-04-08T08:12:46;56.97;;;32.42;;
52816;SDS011;38687;43.330;21.924;2023-04-08T08:15:12;74.57;;;46.63;;
52816;SDS011;38687;43.330;21.924;2023-04-08T08:17:37;56.28;;;34.83;;
52816;SDS011;38687;43.330;21.924;2023-04-08T08:20:03;51.20;;;32.40;;
52816;SDS011;38687;43.330;21.924;2023-04-08T08:22:28;47.92;;;30.65;;
52816;SDS011;38687;43.330;21.924;2023-04-08T08:24:57;47.58;;;30.65;;
52816;SDS011;38687;43.330;21.924;2023-04-08T08:27:23;44.35;;;28.40;;
52816;SDS011;38687;43.330;21.924;2023-04-08T08:29:48;59.30;;;34.42;;
52816;SDS011;38687;43.330;21.924;2023-04-08T08:32:14;51.58;;;32.47;;
52816;SDS011;38687;43.330;21.924;2023-04-08T08:34:39;53.10;;;31.73;;
52816;SDS011;38687;43.330;21.924;2023-04-08T08:37:05;46.33;;;29.27;;
52816;SDS011;38687;43.330;21.924;2023-04-08T08:39:30;36.83;;;24.30;;
52816;SDS011;38687;43.330;21.924;2023-04-08T08:41:56;42.03;;;26.77;;
52816;SDS011;38687;43.330;21.924;2023-04-08T08:44:21;43.47;;;26.95;;
52816;SDS011;38687;43.330;21.924;2023-04-08T08:46:47;38.30;;;23.13;;
52816;SDS011;38687;43.330;21.924;2023-04-08T08:49:12;38.38;;;25.58;;
52816;SDS011;38687;43.330;21.924;2023-04-08T08:51:41;41.20;;;24.55;;
52816;SDS011;38687;43.330;21.924;2023-04-08T08:54:10;34.60;;;24.10;;
52816;SDS011;38687;43.330;21.924;2023-04-08T08:56:35;34.75;;;23.33;;
52816;SDS011;38687;43.330;21.924;2023-04-08T08:59:01;32.92;;;23.48;;
52816;SDS011;38687;43.330;21.924;2023-04-08T09:06:36;31.42;;;21.77;;
52816;SDS011;38687;43.330;21.924;2023-04-08T09:09:02;31.98;;;21.77;;
52816;SDS011;38687;43.330;21.924;2023-04-08T09:11:30;32.70;;;23.08;;
52816;SDS011;38687;43.330;21.924;2023-04-08T09:13:55;35.17;;;23.52;;
52816;SDS011;38687;43.330;21.924;2023-04-08T09:16:21;36.47;;;23.75;;
52816;SDS011;38687;43.330;21.924;2023-04-08T09:18:47;37.47;;;22.90;;
52816;SDS011;38687;43.330;21.924;2023-04-08T09:21:14;34.42;;;22.73;;
52816;SDS011;38687;43.330;21.924;2023-04-08T09:23:47;36.30;;;21.05;;
52816;SDS011;38687;43.330;21.924;2023-04-08T09:26:16;29.85;;;20.70;;
52816;SDS011;38687;43.330;21.924;2023-04-08T09:28:58;29.52;;;18.67;;
52816;SDS011;38687;43.330;21.924;2023-04-08T09:31:31;28.48;;;18.80;;
52816;SDS011;38687;43.330;21.924;2023-04-08T09:34:00;26.08;;;19.27;;
52816;SDS011;38687;43.330;21.924;2023-04-08T09:36:26;28.45;;;19.60;;
52816;SDS011;38687;43.330;21.924;2023-04-08T09:38:52;26.98;;;20.10;;
52816;SDS011;38687;43.330;21.924;2023-04-08T09:41:19;25.40;;;17.75;;
52816;SDS011;38687;43.330;21.924;2023-04-08T09:43:49;25.80;;;18.92;;
52816;SDS011;38687;43.330;21.924;2023-04-08T09:46:17;23.33;;;16.38;;
52816;SDS011;38687;43.330;21.924;2023-04-08T09:48:54;22.30;;;16.52;;
52816;SDS011;38687;43.330;21.924;2023-04-08T09:51:23;21.67;;;16.05;;
52816;SDS011;38687;43.330;21.924;2023-04-08T09:53:55;18.27;;;14.45;;
52816;SDS011;38687;43.330;21.924;2023-04-08T09:56:25;16.45;;;12.27;;
52816;SDS011;38687;43.330;21.924;2023-04-08T09:58:57;19.50;;;12.35;;
52816;SDS011;38687;43.330;21.924;2023-04-08T10:01:25;20.95;;;15.65;;
52816;SDS011;38687;43.330;21.924;2023-04-08T10:03:56;23.23;;;15.60;;
52816;SDS011;38687;43.330;21.924;2023-04-08T10:06:26;18.90;;;14.05;;
52816;SDS011;38687;43.330;21.924;2023-04-08T10:08:54;22.00;;;16.08;;
52816;SDS011;38687;43.330;21.924;2023-04-08T10:11:20;20.55;;;14.85;;
52816;SDS011;38687;43.330;21.924;2023-04-08T10:13:45;19.75;;;14.80;;
52816;SDS011;38687;43.330;21.924;2023-04-08T10:18:41;21.30;;;13.52;;
52816;SDS011;38687;43.330;21.924;2023-04-08T10:21:41;18.38;;;12.15;;
52816;SDS011;38687;43.330;21.924;2023-04-08T10:24:10;17.08;;;12.35;;
52816;SDS011;38687;43.330;21.924;2023-04-08T10:26:36;16.83;;;12.80;;
52816;SDS011;38687;43.330;21.924;2023-04-08T10:29:29;18.08;;;12.63;;
52816;SDS011;38687;43.330;21.924;2023-04-08T10:31:54;17.88;;;12.68;;
52816;SDS011;38687;43.330;21.924;2023-04-08T10:34:22;18.85;;;14.07;;
52816;SDS011;38687;43.330;21.924;2023-04-08T10:36:51;18.20;;;13.70;;
52816;SDS011;38687;43.330;21.924;2023-04-08T10:39:21;41.90;;;21.92;;
52816;SDS011;38687;43.330;21.924;2023-04-08T10:41:47;18.63;;;13.60;;
52816;SDS011;38687;43.330;21.924;2023-04-08T10:44:25;18.00;;;13.77;;
52816;SDS011;38687;43.330;21.924;2023-04-08T10:46:51;14.57;;;11.73;;
52816;SDS011;38687;43.330;21.924;2023-04-08T10:49:20;18.80;;;13.35;;
52816;SDS011;38687;43.330;21.924;2023-04-08T10:51:46;16.70;;;12.40;;
52816;SDS011;38687;43.330;21.924;2023-04-08T10:54:21;15.60;;;11.95;;
52816;SDS011;38687;43.330;21.924;2023-04-08T10:56:48;15.05;;;11.15;;
52816;SDS011;38687;43.330;21.924;2023-04-08T10:59:26;17.15;;;12.60;;
52816;SDS011;38687;43.330;21.924;2023-04-08T11:01:53;16.65;;;12.68;;
52816;SDS011;38687;43.330;21.924;2023-04-08T11:04:19;16.45;;;13.52;;
52816;SDS011;38687;43.330;21.924;2023-04-08T11:06:50;16.08;;;12.75;;
52816;SDS011;38687;43.330;21.924;2023-04-08T11:09:16;15.00;;;13.23;;
52816;SDS011;38687;43.330;21.924;2023-04-08T11:11:42;17.92;;;13.45;;
52816;SDS011;38687;43.330;21.924;2023-04-08T11:14:08;16.05;;;12.63;;
52816;SDS011;38687;43.330;21.924;2023-04-08T11:16:34;17.48;;;12.52;;
52816;SDS011;38687;43.330;21.924;2023-04-08T11:19:02;16.70;;;12.68;;
52816;SDS011;38687;43.330;21.924;2023-04-08T11:21:29;16.60;;;12.18;;
52816;SDS011;38687;43.330;21.924;2023-04-08T11:23:58;17.55;;;13.38;;
52816;SDS011;38687;43.330;21.924;2023-04-08T11:26:27;15.30;;;12.40;;
52816;SDS011;38687;43.330;21.924;2023-04-08T11:28:53;16.50;;;12.90;;
52816;SDS011;38687;43.330;21.924;2023-04-08T11:31:29;18.70;;;12.82;;
52816;SDS011;38687;43.330;21.924;2023-04-08T11:33:55;24.33;;;15.45;;
52816;SDS011;38687;43.330;21.924;2023-04-08T11:36:21;33.17;;;17.92;;
52816;SDS011;38687;43.330;21.924;2023-04-08T11:38:46;20.23;;;13.82;;
52816;SDS011;38687;43.330;21.924;2023-04-08T11:41:12;21.48;;;14.10;;
52816;SDS011;38687;43.330;21.924;2023-04-08T11:43:38;26.50;;;16.50;;
52816;SDS011;38687;43.330;21.924;2023-04-08T11:46:11;17.45;;;12.32;;
52816;SDS011;38687;43.330;21.924;2023-04-08T11:48:37;15.45;;;10.77;;
52816;SDS011;38687;43.330;21.924;2023-04-08T11:51:03;26.40;;;17.27;;
52816;SDS011;38687;43.330;21.924;2023-04-08T11:53:32;21.50;;;15.93;;
52816;SDS011;38687;43.330;21.924;2023-04-08T11:56:14;18.73;;;12.18;;
52816;SDS011;38687;43.330;21.924;2023-04-08T11:58:40;13.73;;;9.95;;
52816;SDS011;38687;43.330;21.924;2023-04-08T12:01:09;16.77;;;11.98;;
52816;SDS011;38687;43.330;21.924;2023-04-08T12:03:37;18.77;;;12.00;;
52816;SDS011;38687;43.330;21.924;2023-04-08T12:06:06;16.00;;;9.93;;
52816;SDS011;38687;43.330;21.924;2023-04-08T12:08:32;8.80;;;6.47;;
52816;SDS011;38687;43.330;21.924;2023-04-08T12:10:58;6.15;;;4.25;;
52816;SDS011;38687;43.330;21.924;2023-04-08T12:13:26;11.93;;;7.80;;
52816;SDS011;38687;43.330;21.924;2023-04-08T12:15:52;4.97;;;3.97;;
52816;SDS011;38687;43.330;21.924;2023-04-08T12:18:20;14.38;;;10.30;;
52816;SDS011;38687;43.330;21.924;2023-04-08T12:20:46;11.48;;;7.70;;
52816;SDS011;38687;43.330;21.924;2023-04-08T12:23:12;17.05;;;11.65;;
52816;SDS011;38687;43.330;21.924;2023-04-08T12:25:37;7.90;;;6.82;;
52816;SDS011;38687;43.330;21.924;2023-04-08T12:28:03;4.68;;;4.07;;
52816;SDS011;38687;43.330;21.924;2023-04-08T12:30:28;5.00;;;3.60;;
52816;SDS011;38687;43.330;21.924;2023-04-08T12:32:53;4.15;;;3.47;;
52816;SDS011;38687;43.330;21.924;2023-04-08T12:35:22;9.52;;;5.95;;
52816;SDS011;38687;43.330;21.924;2023-04-08T12:37:47;6.65;;;5.35;;
52816;SDS011;38687;43.330;21.924;2023-04-08T12:40:13;7.80;;;5.75;;
52816;SDS011;38687;43.330;21.924;2023-04-08T12:42:39;12.75;;;9.00;;
52816;SDS011;38687;43.330;21.924;2023-04-08T12:45:04;4.45;;;3.90;;
52816;SDS011;38687;43.330;21.924;2023-04-08T12:47:30;6.90;;;4.55;;
52816;SDS011;38687;43.330;21.924;2023-04-08T12:50:00;7.25;;;4.53;;
52816;SDS011;38687;43.330;21.924;2023-04-08T12:52:32;8.65;;;6.55;;
52816;SDS011;38687;43.330;21.924;2023-04-08T12:54:57;16.75;;;9.80;;
52816;SDS011;38687;43.330;21.924;2023-04-08T12:57:28;9.32;;;7.22;;
52816;SDS011;38687;43.330;21.924;2023-04-08T12:59:55;14.52;;;8.38;;
52816;SDS011;38687;43.330;21.924;2023-04-08T13:02:21;9.50;;;6.70;;
52816;SDS011;38687;43.330;21.924;2023-04-08T13:04:46;19.23;;;13.50;;
52816;SDS011;38687;43.330;21.924;2023-04-08T13:07:13;11.77;;;8.07;;
52816;SDS011;38687;43.330;21.924;2023-04-08T13:09:39;11.68;;;7.57;;
52816;SDS011;38687;43.330;21.924;2023-04-08T13:12:04;13.70;;;8.52;;
52816;SDS011;38687;43.330;21.924;2023-04-08T13:14:30;32.30;;;14.38;;
52816;SDS011;38687;43.330;21.924;2023-04-08T13:16:55;7.10;;;5.90;;
52816;SDS011;38687;43.330;21.924;2023-04-08T13:19:20;6.78;;;5.07;;
52816;SDS011;38687;43.330;21.924;2023-04-08T13:21:46;4.97;;;3.97;;
52816;SDS011;38687;43.330;21.924;2023-04-08T13:24:14;14.52;;;9.27;;
52816;SDS011;38687;43.330;21.924;2023-04-08T13:26:39;15.43;;;9.20;;
52816;SDS011;38687;43.330;21.924;2023-04-08T13:29:05;7.03;;;5.70;;
52816;SDS011;38687;43.330;21.924;2023-04-08T13:31:30;15.05;;;12.25;;
52816;SDS011;38687;43.330;21.924;2023-04-08T13:33:56;8.25;;;5.45;;
52816;SDS011;38687;43.330;21.924;2023-04-08T13:36:21;5.88;;;4.78;;
52816;SDS011;38687;43.330;21.924;2023-04-08T13:38:47;10.68;;;7.63;;
52816;SDS011;38687;43.330;21.924;2023-04-08T13:41:12;10.52;;;8.27;;
52816;SDS011;38687;43.330;21.924;2023-04-08T13:43:37;15.23;;;9.85;;
52816;SDS011;38687;43.330;21.924;2023-04-08T13:46:06;8.70;;;6.60;;
52816;SDS011;38687;43.330;21.924;2023-04-08T13:48:32;8.30;;;5.63;;
52816;SDS011;38687;43.330;21.924;2023-04-08T13:50:57;6.03;;;4.68;;
52816;SDS011;38687;43.330;21.924;2023-04-08T13:53:22;6.90;;;6.22;;
52816;SDS011;38687;43.330;21.924;2023-04-08T13:55:48;9.27;;;7.80;;
52816;SDS011;38687;43.330;21.924;2023-04-08T13:58:21;10.70;;;6.82;;
52816;SDS011;38687;43.330;21.924;2023-04-08T14:00:47;11.05;;;8.77;;
52816;SDS011;38687;43.330;21.924;2023-04-08T14:03:12;10.70;;;6.93;;
52816;SDS011;38687;43.330;21.924;2023-04-08T14:05:38;10.32;;;7.75;;
52816;SDS011;38687;43.330;21.924;2023-04-08T14:08:03;15.85;;;8.77;;
52816;SDS011;38687;43.330;21.924;2023-04-08T14:10:28;9.13;;;7.00;;
52816;SDS011;38687;43.330;21.924;2023-04-08T14:12:54;22.52;;;10.13;;
52816;SDS011;38687;43.330;21.924;2023-04-08T14:15:19;10.45;;;7.72;;
52816;SDS011;38687;43.330;21.924;2023-04-08T14:17:45;11.88;;;8.77;;
52816;SDS011;38687;43.330;21.924;2023-04-08T14:20:10;30.27;;;16.13;;
52816;SDS011;38687;43.330;21.924;2023-04-08T14:22:36;20.40;;;11.60;;